PRIVATE WETTERSTATION BILLIGHEIM-ALLFELD                       ZURCK
Wetterdaten: Dienstag, 12.12.2017
Datum Zeit Temp. A. Temp. A. min Temp. A. max Feuchte A. Luftdruck Regen Wind Richtung Richtung Sonnenschein ET Solar Taupunkt Windchill Windben Empfang
12.12.2017 00:00 6,0 C 6,0 C 6,1 C 85 % 987,8 hPa 0,0 l/m 11,3 km/h (2 Bft) S-SO 157 0 min 0,025 mm 0 W/m 3,7 C 2,3 C 27,4 km/h (4 Bft) 97 %
12.12.2017 00:10 6,0 C 5,9 C 6,0 C 85 % 988,0 hPa 0,0 l/m 12,9 km/h (3 Bft) S-SO 157 0 min 0,000 mm 0 W/m 3,7 C 1,4 C 25,7 km/h (4 Bft) 98 %
12.12.2017 00:20 5,9 C 5,9 C 6,0 C 85 % 988,2 hPa 0,0 l/m 11,3 km/h (2 Bft) S-SO 157 0 min 0,000 mm 0 W/m 3,6 C 2,2 C 27,4 km/h (4 Bft) 98 %
12.12.2017 00:30 5,9 C 5,9 C 5,9 C 85 % 988,5 hPa 0,0 l/m 9,7 km/h (2 Bft) S 180 0 min 0,000 mm 0 W/m 3,6 C 3,3 C 19,3 km/h (3 Bft) 97 %
12.12.2017 00:40 5,7 C 5,7 C 5,9 C 87 % 988,6 hPa 0,0 l/m 11,3 km/h (2 Bft) S-SW 202 0 min 0,000 mm 0 W/m 3,7 C 2,0 C 27,4 km/h (4 Bft) 97 %
12.12.2017 00:50 5,6 C 5,6 C 5,7 C 88 % 989,3 hPa 0,2 l/m 8,0 km/h (2 Bft) SW 225 0 min 0,000 mm 0 W/m 3,8 C 4,2 C 19,3 km/h (3 Bft) 98 %
12.12.2017 01:00 5,3 C 5,3 C 5,6 C 89 % 989,7 hPa 0,2 l/m 8,0 km/h (2 Bft) W-SW 247 0 min 0,025 mm 0 W/m 3,6 C 3,9 C 24,1 km/h (4 Bft) 98 %
12.12.2017 01:10 5,1 C 5,1 C 5,3 C 90 % 989,9 hPa 0,4 l/m 4,8 km/h (1 Bft) W-SW 247 0 min 0,000 mm 0 W/m 3,6 C 5,1 C 17,7 km/h (3 Bft) 98 %
12.12.2017 01:20 4,9 C 4,9 C 5,1 C 90 % 990,1 hPa 0,4 l/m 14,5 km/h (3 Bft) W 270 0 min 0,000 mm 0 W/m 3,4 C -0,8 C 30,6 km/h (5 Bft) 97 %
12.12.2017 01:30 4,7 C 4,7 C 4,9 C 91 % 990,2 hPa 0,2 l/m 16,1 km/h (3 Bft) W-SW 247 0 min 0,000 mm 0 W/m 3,4 C -1,8 C 43,5 km/h (6 Bft) 98 %
12.12.2017 01:40 4,6 C 4,6 C 4,7 C 91 % 990,3 hPa 0,0 l/m 9,7 km/h (2 Bft) W-SW 247 0 min 0,000 mm 0 W/m 3,3 C 1,8 C 29,0 km/h (5 Bft) 97 %
12.12.2017 01:50 4,6 C 4,6 C 4,6 C 91 % 990,8 hPa 0,0 l/m 17,7 km/h (3 Bft) SW 225 0 min 0,000 mm 0 W/m 3,3 C -2,7 C 41,8 km/h (6 Bft) 97 %
12.12.2017 02:00 4,5 C 4,5 C 4,6 C 90 % 991,3 hPa 0,0 l/m 20,9 km/h (4 Bft) SW 225 0 min 0,025 mm 0 W/m 3,0 C -4,2 C 49,9 km/h (6 Bft) 97 %
12.12.2017 02:10 4,4 C 4,4 C 4,5 C 90 % 991,3 hPa 0,0 l/m 20,9 km/h (4 Bft) S-SW 202 0 min 0,000 mm 0 W/m 2,9 C -4,3 C 38,6 km/h (5 Bft) 97 %
12.12.2017 02:20 4,2 C 4,2 C 4,4 C 90 % 991,3 hPa 0,0 l/m 16,1 km/h (3 Bft) S-SW 202 0 min 0,000 mm 0 W/m 2,7 C -2,5 C 33,8 km/h (5 Bft) 97 %
12.12.2017 02:30 4,1 C 4,1 C 4,2 C 90 % 991,9 hPa 0,0 l/m 12,9 km/h (3 Bft) S-SW 202 0 min 0,000 mm 0 W/m 2,6 C -0,8 C 27,4 km/h (4 Bft) 97 %
12.12.2017 02:40 4,1 C 4,1 C 4,1 C 90 % 992,1 hPa 0,0 l/m 9,7 km/h (2 Bft) SW 225 0 min 0,000 mm 0 W/m 2,6 C 1,3 C 33,8 km/h (5 Bft) 98 %
12.12.2017 02:50 4,1 C 4,1 C 4,1 C 90 % 992,7 hPa 0,0 l/m 11,3 km/h (2 Bft) SW 225 0 min 0,000 mm 0 W/m 2,6 C 0,2 C 33,8 km/h (5 Bft) 98 %
12.12.2017 03:00 4,1 C 4,1 C 4,1 C 89 % 993,1 hPa 0,0 l/m 11,3 km/h (2 Bft) SW 225 0 min 0,025 mm 0 W/m 2,5 C 0,2 C 25,7 km/h (4 Bft) 100 %
12.12.2017 03:10 4,2 C 4,1 C 4,2 C 88 % 993,2 hPa 0,0 l/m 11,3 km/h (2 Bft) SW 225 0 min 0,000 mm 0 W/m 2,4 C 0,3 C 40,2 km/h (6 Bft) 99 %
12.12.2017 03:20 4,2 C 4,2 C 4,2 C 86 % 993,4 hPa 0,0 l/m 14,5 km/h (3 Bft) W-SW 247 0 min 0,000 mm 0 W/m 2,1 C -1,6 C 38,6 km/h (5 Bft) 99 %
12.12.2017 03:30 4,1 C 4,1 C 4,2 C 85 % 993,8 hPa 0,0 l/m 19,3 km/h (3 Bft) SW 225 0 min 0,000 mm 0 W/m 1,8 C -4,0 C 43,5 km/h (6 Bft) 100 %
12.12.2017 03:40 3,9 C 3,9 C 4,2 C 83 % 994,3 hPa 0,0 l/m 25,7 km/h (4 Bft) W-SW 247 0 min 0,000 mm 0 W/m 1,3 C -6,7 C 56,3 km/h (7 Bft) 100 %
12.12.2017 03:50 3,6 C 3,6 C 3,9 C 83 % 994,5 hPa 0,0 l/m 20,9 km/h (4 Bft) SW 225 0 min 0,000 mm 0 W/m 1,0 C -5,3 C 46,7 km/h (6 Bft) 100 %
12.12.2017 04:00 3,3 C 3,3 C 3,6 C 82 % 995,1 hPa 0,0 l/m 24,1 km/h (4 Bft) W-SW 247 0 min 0,025 mm 0 W/m 0,5 C -6,9 C 49,9 km/h (6 Bft) 99 %
12.12.2017 04:10 2,9 C 2,9 C 3,3 C 82 % 995,6 hPa 0,0 l/m 27,4 km/h (4 Bft) W-SW 247 0 min 0,000 mm 0 W/m 0,1 C -8,6 C 54,7 km/h (7 Bft) 100 %
12.12.2017 04:20 2,7 C 2,7 C 2,9 C 82 % 995,6 hPa 0,0 l/m 24,1 km/h (4 Bft) W 270 0 min 0,000 mm 0 W/m -0,1 C -7,7 C 56,3 km/h (7 Bft) 100 %
12.12.2017 04:30 2,5 C 2,5 C 2,7 C 83 % 995,9 hPa 0,0 l/m 20,9 km/h (4 Bft) SW 225 0 min 0,000 mm 0 W/m -0,1 C -6,8 C 46,7 km/h (6 Bft) 100 %
12.12.2017 04:40 2,4 C 2,4 C 2,5 C 84 % 996,4 hPa 0,0 l/m 17,7 km/h (3 Bft) SW 225 0 min 0,000 mm 0 W/m -0,0 C -5,5 C 46,7 km/h (6 Bft) 100 %
12.12.2017 04:50 2,3 C 2,3 C 2,4 C 84 % 996,8 hPa 0,0 l/m 17,7 km/h (3 Bft) SW 225 0 min 0,000 mm 0 W/m -0,1 C -5,6 C 53,1 km/h (7 Bft) 100 %
12.12.2017 05:00 2,3 C 2,3 C 2,3 C 84 % 997,1 hPa 0,0 l/m 19,3 km/h (3 Bft) W-SW 247 0 min 0,025 mm 0 W/m -0,1 C -6,4 C 46,7 km/h (6 Bft) 100 %
12.12.2017 05:10 2,3 C 2,3 C 2,3 C 85 % 997,3 hPa 0,0 l/m 17,7 km/h (3 Bft) W-SW 247 0 min 0,000 mm 0 W/m 0,0 C -5,6 C 51,5 km/h (7 Bft) 100 %
12.12.2017 05:20 2,1 C 2,1 C 2,3 C 86 % 997,6 hPa 0,0 l/m 12,9 km/h (3 Bft) W-SW 247 0 min 0,000 mm 0 W/m 0,0 C -3,2 C 38,6 km/h (5 Bft) 100 %
12.12.2017 05:30 1,9 C 1,9 C 2,1 C 86 % 998,3 hPa 0,0 l/m 17,7 km/h (3 Bft) W-SW 247 0 min 0,000 mm 0 W/m -0,2 C -6,1 C 40,2 km/h (6 Bft) 100 %
12.12.2017 05:40 1,7 C 1,7 C 1,9 C 88 % 998,8 hPa 0,0 l/m 19,3 km/h (3 Bft) W-SW 247 0 min 0,000 mm 0 W/m -0,1 C -7,1 C 38,6 km/h (5 Bft) 100 %
12.12.2017 05:50 1,6 C 1,6 C 1,7 C 88 % 999,3 hPa 0,0 l/m 17,7 km/h (3 Bft) SW 225 0 min 0,000 mm 0 W/m -0,2 C -6,5 C 41,8 km/h (6 Bft) 100 %
12.12.2017 06:00 1,6 C 1,6 C 1,6 C 88 % 999,6 hPa 0,0 l/m 12,9 km/h (3 Bft) W-SW 247 0 min 0,025 mm 0 W/m -0,2 C -3,8 C 33,8 km/h (5 Bft) 100 %
12.12.2017 06:10 1,5 C 1,5 C 1,6 C 88 % 1000,0 hPa 0,0 l/m 14,5 km/h (3 Bft) W-SW 247 0 min 0,000 mm 0 W/m -0,3 C -4,9 C 35,4 km/h (5 Bft) 100 %
12.12.2017 06:20 1,5 C 1,5 C 1,6 C 87 % 1000,5 hPa 0,0 l/m 9,7 km/h (2 Bft) W-SW 247 0 min 0,000 mm 0 W/m -0,4 C -1,6 C 30,6 km/h (5 Bft) 100 %
12.12.2017 06:30 1,6 C 1,5 C 1,6 C 87 % 1000,6 hPa 0,0 l/m 9,7 km/h (2 Bft) W-SW 247 0 min 0,000 mm 0 W/m -0,3 C -1,4 C 25,7 km/h (4 Bft) 100 %
12.12.2017 06:40 1,6 C 1,5 C 1,6 C 87 % 1001,0 hPa 0,0 l/m 9,7 km/h (2 Bft) W-SW 247 0 min 0,000 mm 0 W/m -0,3 C -1,4 C 32,2 km/h (5 Bft) 100 %
12.12.2017 06:50 1,6 C 1,6 C 1,6 C 87 % 1001,4 hPa 0,0 l/m 12,9 km/h (3 Bft) W-SW 247 0 min 0,000 mm 0 W/m -0,3 C -3,8 C 35,4 km/h (5 Bft) 100 %
12.12.2017 07:00 1,7 C 1,6 C 1,7 C 87 % 1001,8 hPa 0,0 l/m 9,7 km/h (2 Bft) W 270 0 min 0,025 mm 0 W/m -0,2 C -1,3 C 25,7 km/h (4 Bft) 100 %
12.12.2017 07:10 1,7 C 1,7 C 1,7 C 86 % 1002,2 hPa 0,0 l/m 11,3 km/h (2 Bft) W-SW 247 0 min 0,000 mm 0 W/m -0,4 C -2,6 C 27,4 km/h (4 Bft) 100 %
12.12.2017 07:20 1,8 C 1,7 C 1,8 C 85 % 1002,7 hPa 0,0 l/m 8,0 km/h (2 Bft) W-SW 247 0 min 0,000 mm 0 W/m -0,4 C 0,2 C 22,5 km/h (4 Bft) 99 %
12.12.2017 07:30 1,9 C 1,8 C 1,9 C 84 % 1002,8 hPa 0,0 l/m 9,7 km/h (2 Bft) W 270 0 min 0,000 mm 0 W/m -0,5 C -1,1 C 27,4 km/h (4 Bft) 91 %
12.12.2017 07:40 1,9 C 1,9 C 1,9 C 84 % 1003,3 hPa 0,0 l/m 9,7 km/h (2 Bft) W-SW 247 0 min 0,000 mm 0 W/m -0,5 C -1,1 C 30,6 km/h (5 Bft) 100 %
12.12.2017 07:50 2,0 C 1,9 C 2,0 C 84 % 1003,5 hPa 0,0 l/m 9,7 km/h (2 Bft) W-SW 247 0 min 0,000 mm 0 W/m -0,4 C -1,0 C 33,8 km/h (5 Bft) 100 %
12.12.2017 08:00 1,9 C 1,9 C 2,0 C 84 % 1003,9 hPa 0,0 l/m 11,3 km/h (2 Bft) SW 225 0 min 0,025 mm 0 W/m -0,5 C -2,3 C 33,8 km/h (5 Bft) 100 %
12.12.2017 08:10 1,9 C 1,9 C 1,9 C 84 % 1004,1 hPa 0,0 l/m 9,7 km/h (2 Bft) SW 225 0 min 0,000 mm 0 W/m -0,5 C -1,1 C 30,6 km/h (5 Bft) 100 %
12.12.2017 08:20 1,8 C 1,8 C 1,9 C 85 % 1004,4 hPa 0,0 l/m 8,0 km/h (2 Bft) W-SW 247 0 min 0,000 mm 5 W/m -0,4 C 0,2 C 24,1 km/h (4 Bft) 100 %
12.12.2017 08:30 1,7 C 1,7 C 1,8 C 85 % 1004,5 hPa 0,0 l/m 9,7 km/h (2 Bft) SW 225 0 min 0,000 mm 9 W/m -0,5 C -1,3 C 22,5 km/h (4 Bft) 100 %
12.12.2017 08:40 1,7 C 1,7 C 1,7 C 86 % 1004,8 hPa 0,0 l/m 9,7 km/h (2 Bft) SW 225 0 min 0,000 mm 16 W/m -0,4 C -1,3 C 20,9 km/h (4 Bft) 100 %
12.12.2017 08:50 1,7 C 1,7 C 1,7 C 86 % 1005,3 hPa 0,0 l/m 9,7 km/h (2 Bft) SW 225 0 min 0,000 mm 25 W/m -0,4 C -1,3 C 24,1 km/h (4 Bft) 100 %
12.12.2017 09:00 1,8 C 1,7 C 1,8 C 86 % 1005,5 hPa 0,0 l/m 9,7 km/h (2 Bft) SW 225 0 min 0,025 mm 25 W/m -0,3 C -1,2 C 24,1 km/h (4 Bft) 100 %
12.12.2017 09:10 1,8 C 1,8 C 1,8 C 86 % 1005,8 hPa 0,0 l/m 12,9 km/h (3 Bft) SW 225 0 min 0,000 mm 25 W/m -0,3 C -3,5 C 29,0 km/h (5 Bft) 100 %
12.12.2017 09:20 1,9 C 1,8 C 1,9 C 87 % 1006,2 hPa 0,0 l/m 8,0 km/h (2 Bft) SW 225 0 min 0,000 mm 40 W/m -0,0 C 0,3 C 22,5 km/h (4 Bft) 100 %
12.12.2017 09:30 2,0 C 1,9 C 2,0 C 86 % 1006,7 hPa 0,0 l/m 9,7 km/h (2 Bft) SW 225 0 min 0,000 mm 70 W/m -0,1 C -1,0 C 29,0 km/h (5 Bft) 100 %
12.12.2017 09:40 2,2 C 2,0 C 2,2 C 86 % 1006,9 hPa 0,0 l/m 8,0 km/h (2 Bft) W-SW 247 0 min 0,000 mm 93 W/m 0,1 C 0,7 C 19,3 km/h (3 Bft) 99 %
12.12.2017 09:50 2,3 C 2,2 C 2,3 C 85 % 1007,0 hPa 0,0 l/m 8,0 km/h (2 Bft) W-SW 247 0 min 0,000 mm 84 W/m 0,0 C 0,8 C 22,5 km/h (4 Bft) 100 %
12.12.2017 10:00 2,4 C 2,3 C 2,4 C 86 % 1007,1 hPa 0,0 l/m 9,7 km/h (2 Bft) W 270 10 min 0,025 mm 197 W/m 0,3 C -0,6 C 24,1 km/h (4 Bft) 100 %
12.12.2017 10:10 2,6 C 2,4 C 2,6 C 85 % 1007,5 hPa 0,0 l/m 12,9 km/h (3 Bft) W-SW 247 10 min 0,000 mm 156 W/m 0,3 C -2,6 C 33,8 km/h (5 Bft) 100 %
12.12.2017 10:20 2,5 C 2,5 C 2,6 C 85 % 1007,6 hPa 0,0 l/m 9,7 km/h (2 Bft) SW 225 0 min 0,000 mm 141 W/m 0,2 C -0,5 C 29,0 km/h (5 Bft) 100 %
12.12.2017 10:30 2,4 C 2,4 C 2,5 C 86 % 1007,7 hPa 0,0 l/m 12,9 km/h (3 Bft) SW 225 0 min 0,000 mm 148 W/m 0,3 C -2,8 C 33,8 km/h (5 Bft) 100 %
12.12.2017 10:40 2,4 C 2,4 C 2,6 C 85 % 1008,2 hPa 0,0 l/m 16,1 km/h (3 Bft) SW 225 0 min 0,000 mm 142 W/m 0,1 C -4,7 C 29,0 km/h (5 Bft) 93 %
12.12.2017 10:50 2,4 C 2,4 C 2,4 C 85 % 1008,4 hPa 0,0 l/m 12,9 km/h (3 Bft) W-SW 247 0 min 0,000 mm 105 W/m 0,1 C -2,8 C 25,7 km/h (4 Bft) 96 %
12.12.2017 11:00 2,4 C 2,4 C 2,4 C 85 % 1008,4 hPa 0,0 l/m 14,5 km/h (3 Bft) W-SW 247 0 min 0,051 mm 95 W/m 0,1 C -3,8 C 33,8 km/h (5 Bft) 100 %
12.12.2017 11:10 2,4 C 2,4 C 2,4 C 85 % 1008,6 hPa 0,0 l/m 9,7 km/h (2 Bft) W-SW 247 0 min 0,000 mm 111 W/m 0,1 C -0,6 C 24,1 km/h (4 Bft) 100 %
12.12.2017 11:20 2,5 C 2,4 C 2,5 C 85 % 1008,8 hPa 0,0 l/m 9,7 km/h (2 Bft) W-SW 247 0 min 0,000 mm 109 W/m 0,2 C -0,5 C 24,1 km/h (4 Bft) 99 %
12.12.2017 11:30 2,6 C 2,5 C 2,6 C 85 % 1009,0 hPa 0,0 l/m 9,7 km/h (2 Bft) SW 225 0 min 0,000 mm 116 W/m 0,3 C -0,3 C 25,7 km/h (4 Bft) 100 %
12.12.2017 11:40 2,6 C 2,6 C 2,6 C 85 % 1009,0 hPa 0,0 l/m 9,7 km/h (2 Bft) SW 225 0 min 0,000 mm 104 W/m 0,3 C -0,3 C 20,9 km/h (4 Bft) 99 %
12.12.2017 11:50 2,7 C 2,6 C 2,7 C 85 % 1009,1 hPa 0,0 l/m 8,0 km/h (2 Bft) SW 225 0 min 0,000 mm 109 W/m 0,4 C 1,2 C 20,9 km/h (4 Bft) 98 %
12.12.2017 12:00 2,8 C 2,7 C 2,8 C 84 % 1009,1 hPa 0,0 l/m 11,3 km/h (2 Bft) SW 225 0 min 0,051 mm 134 W/m 0,4 C -1,3 C 25,7 km/h (4 Bft) 98 %
12.12.2017 12:10 3,1 C 2,8 C 3,1 C 84 % 1009,2 hPa 0,0 l/m 9,7 km/h (2 Bft) W-SW 247 10 min 0,000 mm 174 W/m 0,7 C 0,2 C 24,1 km/h (4 Bft) 97 %
12.12.2017 12:20 3,2 C 3,1 C 3,2 C 83 % 1009,3 hPa 0,0 l/m 8,0 km/h (2 Bft) W-SW 247 0 min 0,000 mm 121 W/m 0,6 C 1,7 C 17,7 km/h (3 Bft) 97 %
12.12.2017 12:30 3,3 C 3,2 C 3,3 C 83 % 1009,3 hPa 0,0 l/m 4,8 km/h (1 Bft) W-SW 247 0 min 0,000 mm 132 W/m 0,7 C 3,3 C 17,7 km/h (3 Bft) 99 %
12.12.2017 12:40 3,4 C 3,3 C 3,4 C 83 % 1009,5 hPa 0,0 l/m 8,0 km/h (2 Bft) SW 225 0 min 0,000 mm 116 W/m 0,8 C 1,9 C 22,5 km/h (4 Bft) 97 %
12.12.2017 12:50 3,4 C 3,4 C 3,4 C 83 % 1009,7 hPa 0,0 l/m 9,7 km/h (2 Bft) SW 225 0 min 0,000 mm 93 W/m 0,8 C 0,5 C 25,7 km/h (4 Bft) 97 %
12.12.2017 13:00 3,4 C 3,4 C 3,4 C 84 % 1009,9 hPa 0,0 l/m 8,0 km/h (2 Bft) SW 225 0 min 0,051 mm 79 W/m 1,0 C 1,9 C 20,9 km/h (4 Bft) 98 %
12.12.2017 13:10 3,4 C 3,3 C 3,4 C 84 % 1009,8 hPa 0,0 l/m 9,7 km/h (2 Bft) W-SW 247 0 min 0,000 mm 76 W/m 1,0 C 0,5 C 22,5 km/h (4 Bft) 97 %
12.12.2017 13:20 3,3 C 3,3 C 3,4 C 84 % 1010,0 hPa 0,0 l/m 9,7 km/h (2 Bft) W 270 0 min 0,000 mm 69 W/m 0,9 C 0,4 C 22,5 km/h (4 Bft) 97 %
12.12.2017 13:30 3,3 C 3,3 C 3,3 C 84 % 1010,0 hPa 0,0 l/m 11,3 km/h (2 Bft) W-SW 247 0 min 0,000 mm 141 W/m 0,9 C -0,7 C 24,1 km/h (4 Bft) 97 %
12.12.2017 13:40 3,3 C 3,3 C 3,4 C 85 % 1010,3 hPa 0,0 l/m 11,3 km/h (2 Bft) SW 225 0 min 0,000 mm 125 W/m 1,0 C -0,7 C 22,5 km/h (4 Bft) 98 %
12.12.2017 13:50 3,4 C 3,3 C 3,4 C 85 % 1010,4 hPa 0,0 l/m 8,0 km/h (2 Bft) W 270 0 min 0,000 mm 102 W/m 1,1 C 1,9 C 22,5 km/h (4 Bft) 98 %
12.12.2017 14:00 3,4 C 3,4 C 3,4 C 85 % 1010,4 hPa 0,0 l/m 8,0 km/h (2 Bft) SW 225 0 min 0,051 mm 81 W/m 1,1 C 1,9 C 20,9 km/h (4 Bft) 97 %
12.12.2017 14:10 3,2 C 3,2 C 3,4 C 86 % 1010,5 hPa 0,0 l/m 11,3 km/h (2 Bft) SW 225 0 min 0,000 mm 70 W/m 1,1 C -0,8 C 25,7 km/h (4 Bft) 98 %
12.12.2017 14:20 2,9 C 2,9 C 3,2 C 87 % 1010,6 hPa 0,0 l/m 8,0 km/h (2 Bft) SW 225 0 min 0,000 mm 65 W/m 1,0 C 1,4 C 19,3 km/h (3 Bft) 97 %
12.12.2017 14:30 2,8 C 2,8 C 2,9 C 87 % 1010,7 hPa 0,0 l/m 11,3 km/h (2 Bft) SW 225 0 min 0,000 mm 120 W/m 0,9 C -1,3 C 29,0 km/h (5 Bft) 89 %
12.12.2017 14:40 3,1 C 2,8 C 3,1 C 86 % 1011,0 hPa 0,0 l/m 12,9 km/h (3 Bft) SW 225 10 min 0,000 mm 176 W/m 1,0 C -2,0 C 29,0 km/h (5 Bft) 97 %
12.12.2017 14:50 3,2 C 3,1 C 3,2 C 84 % 1011,0 hPa 0,0 l/m 12,9 km/h (3 Bft) SW 225 0 min 0,000 mm 102 W/m 0,8 C -1,9 C 29,0 km/h (5 Bft) 98 %
12.12.2017 15:00 3,2 C 3,2 C 3,2 C 84 % 1011,2 hPa 0,0 l/m 8,0 km/h (2 Bft) SW 225 0 min 0,051 mm 111 W/m 0,8 C 1,7 C 22,5 km/h (4 Bft) 97 %
12.12.2017 15:10 3,3 C 3,2 C 3,3 C 83 % 1011,3 hPa 0,0 l/m 12,9 km/h (3 Bft) SW 225 0 min 0,000 mm 104 W/m 0,7 C -1,8 C 30,6 km/h (5 Bft) 97 %
12.12.2017 15:20 3,2 C 3,2 C 3,3 C 84 % 1011,5 hPa 0,0 l/m 12,9 km/h (3 Bft) SW 225 0 min 0,000 mm 69 W/m 0,8 C -1,9 C 27,4 km/h (4 Bft) 98 %
12.12.2017 15:30 3,1 C 3,1 C 3,2 C 84 % 1011,6 hPa 0,0 l/m 11,3 km/h (2 Bft) SW 225 0 min 0,000 mm 72 W/m 0,7 C -1,0 C 24,1 km/h (4 Bft) 97 %
12.12.2017 15:40 2,9 C 2,9 C 3,1 C 84 % 1012,1 hPa 0,0 l/m 9,7 km/h (2 Bft) SW 225 0 min 0,000 mm 30 W/m 0,5 C -0,0 C 19,3 km/h (3 Bft) 98 %
12.12.2017 15:50 2,8 C 2,8 C 2,9 C 85 % 1012,1 hPa 0,0 l/m 9,7 km/h (2 Bft) SW 225 0 min 0,000 mm 33 W/m 0,5 C -0,1 C 22,5 km/h (4 Bft) 97 %
12.12.2017 16:00 2,8 C 2,8 C 2,8 C 85 % 1012,3 hPa 0,0 l/m 11,3 km/h (2 Bft) SW 225 0 min 0,025 mm 26 W/m 0,5 C -1,3 C 20,9 km/h (4 Bft) 98 %
12.12.2017 16:10 2,7 C 2,7 C 2,8 C 85 % 1012,5 hPa 0,0 l/m 12,9 km/h (3 Bft) S-SW 202 0 min 0,000 mm 28 W/m 0,4 C -2,5 C 22,5 km/h (4 Bft) 97 %
12.12.2017 16:20 2,5 C 2,5 C 2,7 C 85 % 1012,6 hPa 0,0 l/m 11,3 km/h (2 Bft) SW 225 0 min 0,000 mm 7 W/m 0,2 C -1,6 C 20,9 km/h (4 Bft) 87 %
12.12.2017 16:30 2,4 C 2,4 C 2,5 C 85 % 1012,8 hPa 0,0 l/m 11,3 km/h (2 Bft) SW 225 0 min 0,000 mm 0 W/m 0,1 C -1,8 C 25,7 km/h (4 Bft) 98 %
12.12.2017 16:40 2,3 C 2,3 C 2,4 C 85 % 1012,9 hPa 0,0 l/m 9,7 km/h (2 Bft) S-SW 202 0 min 0,000 mm 0 W/m 0,0 C -0,7 C 20,9 km/h (4 Bft) 97 %
12.12.2017 16:50 2,1 C 2,1 C 2,3 C 85 % 1013,2 hPa 0,0 l/m 9,7 km/h (2 Bft) S-SW 202 0 min 0,000 mm 0 W/m -0,2 C -0,9 C 19,3 km/h (3 Bft) 98 %
12.12.2017 17:00 1,9 C 1,9 C 2,1 C 86 % 1013,4 hPa 0,0 l/m 9,7 km/h (2 Bft) S-SW 202 0 min 0,025 mm 0 W/m -0,2 C -1,1 C 17,7 km/h (3 Bft) 97 %
12.12.2017 17:10 1,7 C 1,7 C 1,9 C 85 % 1013,4 hPa 0,0 l/m 8,0 km/h (2 Bft) S-SW 202 0 min 0,000 mm 0 W/m -0,5 C 0,1 C 17,7 km/h (3 Bft) 98 %
12.12.2017 17:20 1,5 C 1,5 C 1,7 C 85 % 1013,5 hPa 0,0 l/m 9,7 km/h (2 Bft) S-SW 202 0 min 0,000 mm 0 W/m -0,7 C -1,6 C 16,1 km/h (3 Bft) 97 %
12.12.2017 17:30 1,4 C 1,4 C 1,5 C 86 % 1013,7 hPa 0,0 l/m 9,7 km/h (2 Bft) S-SW 202 0 min 0,000 mm 0 W/m -0,7 C -1,7 C 17,7 km/h (3 Bft) 97 %
12.12.2017 17:40 1,2 C 1,2 C 1,4 C 86 % 1013,8 hPa 0,0 l/m 9,7 km/h (2 Bft) S-SW 202 0 min 0,000 mm 0 W/m -0,9 C -1,9 C 19,3 km/h (3 Bft) 98 %
12.12.2017 17:50 1,2 C 1,2 C 1,2 C 86 % 1013,7 hPa 0,0 l/m 11,3 km/h (2 Bft) S-SW 202 0 min 0,000 mm 0 W/m -0,9 C -3,1 C 20,9 km/h (4 Bft) 97 %
12.12.2017 18:00 1,3 C 1,2 C 1,3 C 86 % 1014,0 hPa 0,0 l/m 9,7 km/h (2 Bft) S-SW 202 0 min 0,025 mm 0 W/m -0,8 C -1,8 C 19,3 km/h (3 Bft) 98 %
12.12.2017 18:10 1,3 C 1,3 C 1,3 C 86 % 1014,2 hPa 0,0 l/m 6,4 km/h (2 Bft) S-SW 202 0 min 0,000 mm 0 W/m -0,8 C 1,3 C 12,9 km/h (3 Bft) 97 %
12.12.2017 18:20 1,1 C 1,1 C 1,3 C 86 % 1014,5 hPa 0,0 l/m 3,2 km/h (1 Bft) S 180 0 min 0,000 mm 0 W/m -1,0 C 1,1 C 9,7 km/h (2 Bft) 98 %
12.12.2017 18:30 0,9 C 0,9 C 1,1 C 87 % 1014,6 hPa 0,0 l/m 4,8 km/h (1 Bft) S 180 0 min 0,000 mm 0 W/m -1,0 C 0,9 C 12,9 km/h (3 Bft) 97 %
12.12.2017 18:40 0,9 C 0,8 C 0,9 C 87 % 1014,8 hPa 0,0 l/m 4,8 km/h (1 Bft) S 180 0 min 0,000 mm 0 W/m -1,0 C 0,9 C 9,7 km/h (2 Bft) 97 %
12.12.2017 18:50 0,8 C 0,8 C 0,9 C 87 % 1014,9 hPa 0,0 l/m 3,2 km/h (1 Bft) S 180 0 min 0,000 mm 0 W/m -1,1 C 0,8 C 8,0 km/h (2 Bft) 98 %
12.12.2017 19:00 0,8 C 0,8 C 0,8 C 88 % 1015,0 hPa 0,0 l/m 4,8 km/h (1 Bft) S 180 0 min 0,000 mm 0 W/m -1,0 C 0,8 C 8,0 km/h (2 Bft) 97 %
12.12.2017 19:10 0,9 C 0,8 C 0,9 C 87 % 1015,1 hPa 0,0 l/m 4,8 km/h (1 Bft) S 180 0 min 0,000 mm 0 W/m -1,0 C 0,9 C 14,5 km/h (3 Bft) 97 %
12.12.2017 19:20 1,0 C 0,9 C 1,0 C 87 % 1015,2 hPa 0,0 l/m 4,8 km/h (1 Bft) S 180 0 min 0,000 mm 0 W/m -0,9 C 1,0 C 11,3 km/h (2 Bft) 97 %
12.12.2017 19:30 0,9 C 0,9 C 1,0 C 87 % 1015,3 hPa 0,0 l/m 4,8 km/h (1 Bft) S 180 0 min 0,000 mm 0 W/m -1,0 C 0,9 C 9,7 km/h (2 Bft) 97 %
12.12.2017 19:40 0,8 C 0,8 C 0,9 C 87 % 1015,5 hPa 0,0 l/m 4,8 km/h (1 Bft) S 180 0 min 0,000 mm 0 W/m -1,1 C 0,8 C 11,3 km/h (2 Bft) 97 %
12.12.2017 19:50 0,7 C 0,7 C 0,9 C 88 % 1015,5 hPa 0,0 l/m 6,4 km/h (2 Bft) S-SW 192 0 min 0,000 mm 0 W/m -1,1 C 0,7 C 11,3 km/h (2 Bft) 100 %
12.12.2017 20:00 0,7 C 0,7 C 0,7 C 88 % 1015,5 hPa 0,0 l/m 5,5 km/h (1 Bft) S-SW 204 0 min 0,000 mm 0 W/m -1,1 C 0,7 C 16,1 km/h (3 Bft) 100 %
12.12.2017 20:10 0,8 C 0,7 C 0,8 C 89 % 1015,7 hPa 0,0 l/m 6,8 km/h (2 Bft) S-SW 195 0 min 0,000 mm 0 W/m -0,8 C 0,4 C 11,3 km/h (2 Bft) 100 %
12.12.2017 20:20 0,9 C 0,8 C 0,9 C 89 % 1015,8 hPa 0,0 l/m 7,1 km/h (2 Bft) S-SW 195 0 min 0,000 mm 0 W/m -0,7 C 0,2 C 14,5 km/h (3 Bft) 100 %
12.12.2017 20:30 0,9 C 0,8 C 0,9 C 88 % 1016,0 hPa 0,0 l/m 8,4 km/h (2 Bft) S 186 0 min 0,000 mm 0 W/m -0,9 C -1,1 C 19,3 km/h (3 Bft) 100 %
12.12.2017 20:40 1,1 C 0,9 C 1,1 C 88 % 1016,2 hPa 0,0 l/m 10,4 km/h (2 Bft) W-SW 248 0 min 0,000 mm 0 W/m -0,7 C -2,6 C 20,9 km/h (4 Bft) 100 %
12.12.2017 20:50 1,1 C 1,1 C 1,1 C 89 % 1016,3 hPa 0,2 l/m 9,8 km/h (2 Bft) SW 224 0 min 0,000 mm 0 W/m -0,5 C -2,1 C 22,5 km/h (4 Bft) 100 %
12.12.2017 21:00 1,1 C 1,1 C 1,1 C 89 % 1016,4 hPa 0,0 l/m 9,0 km/h (2 Bft) SW 233 0 min 0,000 mm 0 W/m -0,5 C -1,4 C 17,7 km/h (3 Bft) 100 %
12.12.2017 21:10 1,0 C 1,0 C 1,1 C 90 % 1016,4 hPa 0,0 l/m 6,4 km/h (2 Bft) SW 225 0 min 0,000 mm 0 W/m -0,5 C 1,0 C 16,1 km/h (3 Bft) 98 %
12.12.2017 21:20 0,9 C 0,9 C 1,0 C 90 % 1016,5 hPa 0,0 l/m 6,4 km/h (2 Bft) SW 225 0 min 0,000 mm 0 W/m -0,6 C 0,9 C 14,5 km/h (3 Bft) 97 %
12.12.2017 21:30 0,7 C 0,7 C 0,9 C 90 % 1016,7 hPa 0,0 l/m 6,4 km/h (2 Bft) S-SW 202 0 min 0,000 mm 0 W/m -0,7 C 0,7 C 14,5 km/h (3 Bft) 97 %
12.12.2017 21:40 0,6 C 0,6 C 0,7 C 90 % 1016,8 hPa 0,0 l/m 4,8 km/h (1 Bft) S-SW 202 0 min 0,000 mm 0 W/m -0,8 C 0,6 C 9,7 km/h (2 Bft) 98 %
12.12.2017 21:50 0,3 C 0,3 C 0,6 C 90 % 1016,9 hPa 0,0 l/m 3,2 km/h (1 Bft) S-SW 202 0 min 0,000 mm 0 W/m -1,1 C 0,3 C 6,4 km/h (2 Bft) 97 %
12.12.2017 22:00 0,3 C 0,3 C 0,3 C 90 % 1016,9 hPa 0,0 l/m 1,6 km/h (1 Bft) S-SW 202 0 min 0,000 mm 0 W/m -1,1 C 0,3 C 6,4 km/h (2 Bft) 98 %
12.12.2017 22:10 0,1 C 0,1 C 0,3 C 90 % 1017,1 hPa 0,0 l/m 4,8 km/h (1 Bft) S-SW 202 0 min 0,000 mm 0 W/m -1,3 C 0,1 C 9,7 km/h (2 Bft) 97 %
12.12.2017 22:20 0,1 C 0,1 C 0,1 C 91 % 1017,2 hPa 0,0 l/m 3,2 km/h (1 Bft) S-SW 202 0 min 0,000 mm 0 W/m -1,2 C 0,1 C 9,7 km/h (2 Bft) 89 %
12.12.2017 22:30 0,1 C 0,1 C 0,1 C 91 % 1017,3 hPa 0,0 l/m 4,8 km/h (1 Bft) S-SW 202 0 min 0,000 mm 0 W/m -1,2 C 0,1 C 9,7 km/h (2 Bft) 98 %
12.12.2017 22:40 0,2 C 0,1 C 0,2 C 91 % 1017,3 hPa 0,0 l/m 6,4 km/h (2 Bft) SW 225 0 min 0,000 mm 0 W/m -1,1 C 0,2 C 11,3 km/h (2 Bft) 97 %
12.12.2017 22:50 0,3 C 0,2 C 0,3 C 91 % 1017,3 hPa 0,0 l/m 6,4 km/h (2 Bft) SW 225 0 min 0,000 mm 0 W/m -1,0 C 0,3 C 11,3 km/h (2 Bft) 97 %
12.12.2017 23:00 0,4 C 0,3 C 0,4 C 91 % 1017,4 hPa 0,0 l/m 3,2 km/h (1 Bft) SW 225 0 min 0,000 mm 0 W/m -0,9 C 0,4 C 9,7 km/h (2 Bft) 98 %
12.12.2017 23:10 0,6 C 0,4 C 0,6 C 91 % 1017,4 hPa 0,0 l/m 1,6 km/h (1 Bft) W-SW 247 0 min 0,000 mm 0 W/m -0,7 C 0,6 C 11,3 km/h (2 Bft) 100 %
12.12.2017 23:20 0,7 C 0,6 C 0,7 C 91 % 1017,5 hPa 0,0 l/m 1,6 km/h (1 Bft) W-SW 247 0 min 0,000 mm 0 W/m -0,6 C 0,7 C 6,4 km/h (2 Bft) 100 %
12.12.2017 23:30 0,9 C 0,7 C 0,9 C 90 % 1017,6 hPa 0,0 l/m 1,6 km/h (1 Bft) W-SW 247 0 min 0,000 mm 0 W/m -0,6 C 0,9 C 6,4 km/h (2 Bft) 100 %
12.12.2017 23:40 0,8 C 0,8 C 0,9 C 90 % 1017,5 hPa 0,0 l/m 1,6 km/h (1 Bft) W-SW 247 0 min 0,000 mm 0 W/m -0,6 C 0,8 C 8,0 km/h (2 Bft) 98 %
12.12.2017 23:50 0,5 C 0,5 C 0,9 C 90 % 1017,6 hPa 0,0 l/m 0,0 km/h (0 Bft) SW 225 0 min 0,000 mm 0 W/m -0,9 C 0,5 C 4,8 km/h (1 Bft) 100 %
_ Min-Zeit 22:10 22:10 22:20 04:00 00:00 - 23:50 - - - - - 22:10 04:10 23:50 16:20
Minimum _ 0,1 C 0,1 C 0,1 C 82 % 987,8 hPa - 0,0 km/h (0 Bft) - - - - - -1,3 C -8,6 C 4,8 km/h (1 Bft) 87 %
_ Max-Zeit 00:00 00:00 00:00 01:30 23:30 01:10 04:10 - - 10:00 11:00 10:00 00:50 01:10 03:40 03:00
Maximum _ 6,1 C 6,0 C 6,1 C 91 % 1017,6 hPa 0,4 l/m 27,4 km/h
W-SW (4 Bft)
- - 10 min 0,051 mm 197 W/m 3,8 C 5,1 C 56,3 km/h
SW (7 Bft)
100 %
Durchschnitt _ 2,4 C 2,3 C 2,4 C 87 % 1006,4 hPa #1,6 l/m 10,3 km/h (2 Bft) SW - #40 min. #0,605 mm 89 W/m 0,3 C -1,0 C 24,9 km/h (4 Bft) 98 %
PRIVATE WETTERSTATION BILLIGHEIM-ALLFELD - www.neckar-odenwald-wetter.de - Holger Sonntag